Terminal Aerodrome Forecast
Issued by NWS

Home | Current Version | Previous Version | Text Only | Print | Product List | Glossary On
Versions: 1 2 3 4 5 6 7 8 9 10 11 12 13 14 15
000
FTUS45 KGGW 141720
TAFSDY
TAF
KSDY 141720Z 1418/1518 15010G20KT P6SM VCSH OVC100
     FM142000 14008KT P6SM -SHRA OVC070
     FM150300 01004KT P6SM VCSH BKN080
     FM150800 VRB03KT P6SM BKN070=

USA.gov is the U.S. government's official web portal to all federal, state and local government web resources and services.